sensor_id;sensor_type;location;lat;lon;timestamp;temperature;humidity
73547;SHT30;61807;48.384;-4.386;2022-08-19T00:02:21;19.98;81.69
73547;SHT30;61807;48.384;-4.386;2022-08-19T00:04:46;19.96;81.66
73547;SHT30;61807;48.384;-4.386;2022-08-19T00:07:13;19.96;81.64
73547;SHT30;61807;48.384;-4.386;2022-08-19T00:09:39;19.96;81.67
73547;SHT30;61807;48.384;-4.386;2022-08-19T00:12:04;19.96;81.67
73547;SHT30;61807;48.384;-4.386;2022-08-19T00:14:30;19.95;81.71
73547;SHT30;61807;48.384;-4.386;2022-08-19T00:16:56;19.96;81.70
73547;SHT30;61807;48.384;-4.386;2022-08-19T00:19:23;19.95;81.77
73547;SHT30;61807;48.384;-4.386;2022-08-19T00:21:48;19.95;81.72
73547;SHT30;61807;48.384;-4.386;2022-08-19T00:24:14;19.96;81.71
73547;SHT30;61807;48.384;-4.386;2022-08-19T00:26:41;19.96;81.77
73547;SHT30;61807;48.384;-4.386;2022-08-19T00:29:09;19.98;81.95
73547;SHT30;61807;48.384;-4.386;2022-08-19T00:31:34;19.95;81.83
73547;SHT30;61807;48.384;-4.386;2022-08-19T00:34:01;19.94;81.82
73547;SHT30;61807;48.384;-4.386;2022-08-19T00:36:26;19.96;81.80
73547;SHT30;61807;48.384;-4.386;2022-08-19T00:38:53;19.98;81.86
73547;SHT30;61807;48.384;-4.386;2022-08-19T00:41:20;19.96;81.90
73547;SHT30;61807;48.384;-4.386;2022-08-19T00:46:33;19.96;81.93
73547;SHT30;61807;48.384;-4.386;2022-08-19T00:49:02;19.91;81.91
73547;SHT30;61807;48.384;-4.386;2022-08-19T00:51:31;19.92;81.92
73547;SHT30;61807;48.384;-4.386;2022-08-19T00:53:59;19.88;81.95
73547;SHT30;61807;48.384;-4.386;2022-08-19T00:56:26;19.89;81.99
73547;SHT30;61807;48.384;-4.386;2022-08-19T00:58:52;19.87;82.00
73547;SHT30;61807;48.384;-4.386;2022-08-19T01:01:19;19.85;81.98
73547;SHT30;61807;48.384;-4.386;2022-08-19T01:03:45;19.81;81.97
73547;SHT30;61807;48.384;-4.386;2022-08-19T01:06:10;19.81;82.02
73547;SHT30;61807;48.384;-4.386;2022-08-19T01:08:35;19.79;81.99
73547;SHT30;61807;48.384;-4.386;2022-08-19T01:11:01;19.75;81.99
73547;SHT30;61807;48.384;-4.386;2022-08-19T01:13:30;19.75;82.06
73547;SHT30;61807;48.384;-4.386;2022-08-19T01:16:06;19.71;82.16
73547;SHT30;61807;48.384;-4.386;2022-08-19T01:18:36;19.67;82.13
73547;SHT30;61807;48.384;-4.386;2022-08-19T01:21:09;19.61;82.15
73547;SHT30;61807;48.384;-4.386;2022-08-19T01:23:36;19.63;82.19
73547;SHT30;61807;48.384;-4.386;2022-08-19T01:26:16;19.64;82.21
73547;SHT30;61807;48.384;-4.386;2022-08-19T01:28:43;19.64;82.20
73547;SHT30;61807;48.384;-4.386;2022-08-19T01:31:16;19.66;82.23
73547;SHT30;61807;48.384;-4.386;2022-08-19T01:33:44;19.64;82.24
73547;SHT30;61807;48.384;-4.386;2022-08-19T01:36:13;19.60;82.25
73547;SHT30;61807;48.384;-4.386;2022-08-19T01:38:41;19.63;82.21
73547;SHT30;61807;48.384;-4.386;2022-08-19T01:41:09;19.58;82.17
73547;SHT30;61807;48.384;-4.386;2022-08-19T01:43:34;19.58;82.25
73547;SHT30;61807;48.384;-4.386;2022-08-19T01:46:00;19.56;82.26
73547;SHT30;61807;48.384;-4.386;2022-08-19T01:48:26;19.57;82.21
73547;SHT30;61807;48.384;-4.386;2022-08-19T01:50:54;19.58;82.18
73547;SHT30;61807;48.384;-4.386;2022-08-19T01:53:20;19.56;82.25
73547;SHT30;61807;48.384;-4.386;2022-08-19T01:55:45;19.53;82.26
73547;SHT30;61807;48.384;-4.386;2022-08-19T01:58:14;19.50;82.34
73547;SHT30;61807;48.384;-4.386;2022-08-19T02:00:43;19.53;82.33
73547;SHT30;61807;48.384;-4.386;2022-08-19T02:03:10;19.51;82.47
73547;SHT30;61807;48.384;-4.386;2022-08-19T02:05:36;19.51;82.47
73547;SHT30;61807;48.384;-4.386;2022-08-19T02:08:02;19.51;82.38
73547;SHT30;61807;48.384;-4.386;2022-08-19T02:10:28;19.53;82.38
73547;SHT30;61807;48.384;-4.386;2022-08-19T02:12:53;19.50;82.36
73547;SHT30;61807;48.384;-4.386;2022-08-19T02:15:19;19.51;82.44
73547;SHT30;61807;48.384;-4.386;2022-08-19T02:17:46;19.50;82.44
73547;SHT30;61807;48.384;-4.386;2022-08-19T02:20:12;19.50;82.56
73547;SHT30;61807;48.384;-4.386;2022-08-19T02:22:39;19.47;82.46
73547;SHT30;61807;48.384;-4.386;2022-08-19T02:25:07;19.49;82.52
73547;SHT30;61807;48.384;-4.386;2022-08-19T02:27:32;19.47;82.56
73547;SHT30;61807;48.384;-4.386;2022-08-19T02:29:59;19.45;82.52
73547;SHT30;61807;48.384;-4.386;2022-08-19T02:32:25;19.46;82.63
73547;SHT30;61807;48.384;-4.386;2022-08-19T02:34:50;19.46;82.59
73547;SHT30;61807;48.384;-4.386;2022-08-19T02:37:16;19.43;82.63
73547;SHT30;61807;48.384;-4.386;2022-08-19T02:40:00;19.43;82.66
73547;SHT30;61807;48.384;-4.386;2022-08-19T02:42:26;19.43;82.65
73547;SHT30;61807;48.384;-4.386;2022-08-19T02:44:51;19.37;82.64
73547;SHT30;61807;48.384;-4.386;2022-08-19T02:47:18;19.37;82.62
73547;SHT30;61807;48.384;-4.386;2022-08-19T02:49:44;19.38;82.60
73547;SHT30;61807;48.384;-4.386;2022-08-19T02:52:10;19.34;82.67
73547;SHT30;61807;48.384;-4.386;2022-08-19T02:54:36;19.33;82.69
73547;SHT30;61807;48.384;-4.386;2022-08-19T02:57:02;19.29;82.72
73547;SHT30;61807;48.384;-4.386;2022-08-19T02:59:30;19.31;82.78
73547;SHT30;61807;48.384;-4.386;2022-08-19T03:01:55;19.33;82.78
73547;SHT30;61807;48.384;-4.386;2022-08-19T03:04:21;19.31;82.82
73547;SHT30;61807;48.384;-4.386;2022-08-19T03:06:48;19.34;82.82
73547;SHT30;61807;48.384;-4.386;2022-08-19T03:09:14;19.37;82.84
73547;SHT30;61807;48.384;-4.386;2022-08-19T03:11:40;19.40;82.80
73547;SHT30;61807;48.384;-4.386;2022-08-19T03:14:07;19.33;82.74
73547;SHT30;61807;48.384;-4.386;2022-08-19T03:16:39;19.37;82.69
73547;SHT30;61807;48.384;-4.386;2022-08-19T03:19:05;19.38;82.74
73547;SHT30;61807;48.384;-4.386;2022-08-19T03:21:32;19.37;82.69
73547;SHT30;61807;48.384;-4.386;2022-08-19T03:24:00;19.37;82.73
73547;SHT30;61807;48.384;-4.386;2022-08-19T03:26:26;19.33;82.80
73547;SHT30;61807;48.384;-4.386;2022-08-19T03:28:51;19.31;82.93
73547;SHT30;61807;48.384;-4.386;2022-08-19T03:31:21;19.31;82.81
73547;SHT30;61807;48.384;-4.386;2022-08-19T03:33:48;19.30;82.84
73547;SHT30;61807;48.384;-4.386;2022-08-19T03:36:20;19.33;82.88
73547;SHT30;61807;48.384;-4.386;2022-08-19T03:38:51;19.33;82.92
73547;SHT30;61807;48.384;-4.386;2022-08-19T03:41:19;19.36;82.87
73547;SHT30;61807;48.384;-4.386;2022-08-19T03:43:46;19.34;82.85
73547;SHT30;61807;48.384;-4.386;2022-08-19T03:46:14;19.38;82.84
73547;SHT30;61807;48.384;-4.386;2022-08-19T03:48:42;19.38;82.83
73547;SHT30;61807;48.384;-4.386;2022-08-19T03:51:15;19.38;82.86
73547;SHT30;61807;48.384;-4.386;2022-08-19T03:53:41;19.40;82.86
73547;SHT30;61807;48.384;-4.386;2022-08-19T03:56:09;19.41;82.78
73547;SHT30;61807;48.384;-4.386;2022-08-19T03:58:35;19.41;82.74
73547;SHT30;61807;48.384;-4.386;2022-08-19T04:01:08;19.43;82.78
73547;SHT30;61807;48.384;-4.386;2022-08-19T04:03:34;19.41;82.70
73547;SHT30;61807;48.384;-4.386;2022-08-19T04:06:10;19.45;82.64
73547;SHT30;61807;48.384;-4.386;2022-08-19T04:08:36;19.40;82.67
73547;SHT30;61807;48.384;-4.386;2022-08-19T04:11:07;19.43;82.63
73547;SHT30;61807;48.384;-4.386;2022-08-19T04:13:33;19.43;82.58
73547;SHT30;61807;48.384;-4.386;2022-08-19T04:15:59;19.41;82.56
73547;SHT30;61807;48.384;-4.386;2022-08-19T04:18:24;19.38;82.58
73547;SHT30;61807;48.384;-4.386;2022-08-19T04:20:50;19.38;82.54
73547;SHT30;61807;48.384;-4.386;2022-08-19T04:23:16;19.40;82.57
73547;SHT30;61807;48.384;-4.386;2022-08-19T04:25:43;19.41;82.57
73547;SHT30;61807;48.384;-4.386;2022-08-19T04:28:11;19.45;82.58
73547;SHT30;61807;48.384;-4.386;2022-08-19T04:30:38;19.43;82.58
73547;SHT30;61807;48.384;-4.386;2022-08-19T04:33:04;19.45;82.55
73547;SHT30;61807;48.384;-4.386;2022-08-19T04:35:38;19.46;82.52
73547;SHT30;61807;48.384;-4.386;2022-08-19T04:38:03;19.46;82.49
73547;SHT30;61807;48.384;-4.386;2022-08-19T04:40:29;19.47;82.51
73547;SHT30;61807;48.384;-4.386;2022-08-19T04:43:13;19.47;82.51
73547;SHT30;61807;48.384;-4.386;2022-08-19T04:45:39;19.46;82.51
73547;SHT30;61807;48.384;-4.386;2022-08-19T04:48:05;19.47;82.58
73547;SHT30;61807;48.384;-4.386;2022-08-19T04:50:30;19.50;82.60
73547;SHT30;61807;48.384;-4.386;2022-08-19T04:52:56;19.51;82.58
73547;SHT30;61807;48.384;-4.386;2022-08-19T04:55:21;19.53;82.47
73547;SHT30;61807;48.384;-4.386;2022-08-19T04:57:48;19.54;82.40
73547;SHT30;61807;48.384;-4.386;2022-08-19T05:00:14;19.56;82.37
73547;SHT30;61807;48.384;-4.386;2022-08-19T05:02:39;19.56;82.45
73547;SHT30;61807;48.384;-4.386;2022-08-19T05:05:05;19.56;82.42
73547;SHT30;61807;48.384;-4.386;2022-08-19T05:07:31;19.53;82.37
73547;SHT30;61807;48.384;-4.386;2022-08-19T05:09:57;19.56;82.36
73547;SHT30;61807;48.384;-4.386;2022-08-19T05:12:22;19.51;82.37
73547;SHT30;61807;48.384;-4.386;2022-08-19T05:14:47;19.50;82.36
73547;SHT30;61807;48.384;-4.386;2022-08-19T05:17:14;19.51;82.34
73547;SHT30;61807;48.384;-4.386;2022-08-19T05:19:40;19.53;82.35
73547;SHT30;61807;48.384;-4.386;2022-08-19T05:22:24;19.51;82.37
73547;SHT30;61807;48.384;-4.386;2022-08-19T05:25:11;19.51;82.39
73547;SHT30;61807;48.384;-4.386;2022-08-19T05:27:37;19.51;82.40
73547;SHT30;61807;48.384;-4.386;2022-08-19T05:30:04;19.51;82.47
73547;SHT30;61807;48.384;-4.386;2022-08-19T05:32:29;19.53;82.44
73547;SHT30;61807;48.384;-4.386;2022-08-19T05:34:55;19.50;82.55
73547;SHT30;61807;48.384;-4.386;2022-08-19T05:37:20;19.50;82.56
73547;SHT30;61807;48.384;-4.386;2022-08-19T05:39:47;19.53;82.67
73547;SHT30;61807;48.384;-4.386;2022-08-19T05:42:14;19.51;82.62
73547;SHT30;61807;48.384;-4.386;2022-08-19T05:44:42;19.53;82.57
73547;SHT30;61807;48.384;-4.386;2022-08-19T05:47:11;19.54;82.58
73547;SHT30;61807;48.384;-4.386;2022-08-19T05:49:37;19.56;82.54
73547;SHT30;61807;48.384;-4.386;2022-08-19T05:52:05;19.54;82.52
73547;SHT30;61807;48.384;-4.386;2022-08-19T05:54:32;19.56;82.53
73547;SHT30;61807;48.384;-4.386;2022-08-19T05:56:57;19.57;82.58
73547;SHT30;61807;48.384;-4.386;2022-08-19T05:59:23;19.58;82.55
73547;SHT30;61807;48.384;-4.386;2022-08-19T06:01:51;19.58;82.57
73547;SHT30;61807;48.384;-4.386;2022-08-19T06:04:18;19.58;82.61
73547;SHT30;61807;48.384;-4.386;2022-08-19T06:06:46;19.61;82.56
73547;SHT30;61807;48.384;-4.386;2022-08-19T06:09:12;19.63;82.53
73547;SHT30;61807;48.384;-4.386;2022-08-19T06:11:49;19.66;82.58
73547;SHT30;61807;48.384;-4.386;2022-08-19T06:14:21;19.61;82.62
73547;SHT30;61807;48.384;-4.386;2022-08-19T06:16:47;19.61;82.61
73547;SHT30;61807;48.384;-4.386;2022-08-19T06:19:18;19.64;82.66
73547;SHT30;61807;48.384;-4.386;2022-08-19T06:21:45;19.61;82.74
73547;SHT30;61807;48.384;-4.386;2022-08-19T06:24:13;19.61;82.76
73547;SHT30;61807;48.384;-4.386;2022-08-19T06:26:40;19.61;82.78
73547;SHT30;61807;48.384;-4.386;2022-08-19T06:29:09;19.63;82.88
73547;SHT30;61807;48.384;-4.386;2022-08-19T06:31:36;19.63;82.85
73547;SHT30;61807;48.384;-4.386;2022-08-19T06:34:03;19.61;82.95
73547;SHT30;61807;48.384;-4.386;2022-08-19T06:36:36;19.64;83.08
73547;SHT30;61807;48.384;-4.386;2022-08-19T06:39:07;19.64;83.11
73547;SHT30;61807;48.384;-4.386;2022-08-19T06:41:47;19.63;83.17
73547;SHT30;61807;48.384;-4.386;2022-08-19T06:44:14;19.63;83.19
73547;SHT30;61807;48.384;-4.386;2022-08-19T06:46:41;19.61;83.25
73547;SHT30;61807;48.384;-4.386;2022-08-19T06:49:07;19.64;83.51
73547;SHT30;61807;48.384;-4.386;2022-08-19T06:51:35;19.64;83.51
73547;SHT30;61807;48.384;-4.386;2022-08-19T06:54:00;19.63;83.49
73547;SHT30;61807;48.384;-4.386;2022-08-19T06:56:29;19.63;83.60
73547;SHT30;61807;48.384;-4.386;2022-08-19T06:59:04;19.61;83.59
73547;SHT30;61807;48.384;-4.386;2022-08-19T07:01:33;19.61;83.59
73547;SHT30;61807;48.384;-4.386;2022-08-19T07:03:59;19.61;83.62
73547;SHT30;61807;48.384;-4.386;2022-08-19T07:06:27;19.63;83.57
73547;SHT30;61807;48.384;-4.386;2022-08-19T07:08:52;19.63;83.61
73547;SHT30;61807;48.384;-4.386;2022-08-19T07:11:18;19.58;83.67
73547;SHT30;61807;48.384;-4.386;2022-08-19T07:13:45;19.61;83.65
73547;SHT30;61807;48.384;-4.386;2022-08-19T07:16:16;19.61;83.69
73547;SHT30;61807;48.384;-4.386;2022-08-19T07:18:42;19.58;83.75
73547;SHT30;61807;48.384;-4.386;2022-08-19T07:21:15;19.57;83.87
73547;SHT30;61807;48.384;-4.386;2022-08-19T07:23:42;19.60;83.82
73547;SHT30;61807;48.384;-4.386;2022-08-19T07:26:24;19.61;83.96
73547;SHT30;61807;48.384;-4.386;2022-08-19T07:28:50;19.64;83.93
73547;SHT30;61807;48.384;-4.386;2022-08-19T07:31:19;19.67;83.95
73547;SHT30;61807;48.384;-4.386;2022-08-19T07:33:46;19.67;83.94
73547;SHT30;61807;48.384;-4.386;2022-08-19T07:36:13;19.68;83.96
73547;SHT30;61807;48.384;-4.386;2022-08-19T07:38:43;19.71;84.07
73547;SHT30;61807;48.384;-4.386;2022-08-19T07:41:13;19.74;84.13
73547;SHT30;61807;48.384;-4.386;2022-08-19T07:43:39;19.74;84.09
73547;SHT30;61807;48.384;-4.386;2022-08-19T07:46:05;19.78;84.01
73547;SHT30;61807;48.384;-4.386;2022-08-19T07:48:31;19.78;83.97
73547;SHT30;61807;48.384;-4.386;2022-08-19T07:51:00;19.77;83.97
73547;SHT30;61807;48.384;-4.386;2022-08-19T07:53:30;19.78;84.14
73547;SHT30;61807;48.384;-4.386;2022-08-19T07:55:56;19.79;84.27
73547;SHT30;61807;48.384;-4.386;2022-08-19T07:58:25;19.78;84.37
73547;SHT30;61807;48.384;-4.386;2022-08-19T08:00:50;19.81;84.19
73547;SHT30;61807;48.384;-4.386;2022-08-19T08:03:18;19.81;84.21
73547;SHT30;61807;48.384;-4.386;2022-08-19T08:05:44;19.84;84.21
73547;SHT30;61807;48.384;-4.386;2022-08-19T08:08:28;19.85;84.02
73547;SHT30;61807;48.384;-4.386;2022-08-19T08:11:15;19.87;83.90
73547;SHT30;61807;48.384;-4.386;2022-08-19T08:13:41;19.85;83.90
73547;SHT30;61807;48.384;-4.386;2022-08-19T08:16:07;19.82;83.91
73547;SHT30;61807;48.384;-4.386;2022-08-19T08:18:33;19.81;84.00
73547;SHT30;61807;48.384;-4.386;2022-08-19T08:20:59;19.89;83.95
73547;SHT30;61807;48.384;-4.386;2022-08-19T08:23:25;19.99;84.13
73547;SHT30;61807;48.384;-4.386;2022-08-19T08:25:57;20.04;83.79
73547;SHT30;61807;48.384;-4.386;2022-08-19T08:28:23;20.04;83.60
73547;SHT30;61807;48.384;-4.386;2022-08-19T08:30:50;20.08;83.45
73547;SHT30;61807;48.384;-4.386;2022-08-19T08:33:22;20.06;83.47
73547;SHT30;61807;48.384;-4.386;2022-08-19T08:35:47;20.06;83.43
73547;SHT30;61807;48.384;-4.386;2022-08-19T08:38:14;20.02;83.31
73547;SHT30;61807;48.384;-4.386;2022-08-19T08:40:49;20.02;83.30
73547;SHT30;61807;48.384;-4.386;2022-08-19T08:43:37;20.04;83.30
73547;SHT30;61807;48.384;-4.386;2022-08-19T08:46:13;20.04;83.29
73547;SHT30;61807;48.384;-4.386;2022-08-19T08:51:40;20.08;83.44
73547;SHT30;61807;48.384;-4.386;2022-08-19T08:54:10;20.08;83.38
73547;SHT30;61807;48.384;-4.386;2022-08-19T08:56:41;20.09;83.32
73547;SHT30;61807;48.384;-4.386;2022-08-19T08:59:30;20.12;83.32
73547;SHT30;61807;48.384;-4.386;2022-08-19T09:01:57;20.18;83.34
73547;SHT30;61807;48.384;-4.386;2022-08-19T09:04:23;20.24;83.18
73547;SHT30;61807;48.384;-4.386;2022-08-19T09:09:45;20.30;83.22
73547;SHT30;61807;48.384;-4.386;2022-08-19T09:15:07;20.29;82.96
73547;SHT30;61807;48.384;-4.386;2022-08-19T09:17:35;20.30;83.08
73547;SHT30;61807;48.384;-4.386;2022-08-19T09:20:05;20.30;83.01
73547;SHT30;61807;48.384;-4.386;2022-08-19T09:22:35;20.29;83.13
73547;SHT30;61807;48.384;-4.386;2022-08-19T09:25:02;20.35;83.13
73547;SHT30;61807;48.384;-4.386;2022-08-19T09:27:28;20.36;83.00
73547;SHT30;61807;48.384;-4.386;2022-08-19T09:29:53;20.35;82.89
73547;SHT30;61807;48.384;-4.386;2022-08-19T09:32:20;20.40;82.78
73547;SHT30;61807;48.384;-4.386;2022-08-19T09:34:46;20.42;82.74
73547;SHT30;61807;48.384;-4.386;2022-08-19T09:37:11;20.42;82.58
73547;SHT30;61807;48.384;-4.386;2022-08-19T09:39:38;20.40;82.57
73547;SHT30;61807;48.384;-4.386;2022-08-19T09:42:04;20.40;82.52
73547;SHT30;61807;48.384;-4.386;2022-08-19T09:44:30;20.36;82.41
73547;SHT30;61807;48.384;-4.386;2022-08-19T09:46:55;20.37;82.40
73547;SHT30;61807;48.384;-4.386;2022-08-19T09:49:21;20.35;82.38
73547;SHT30;61807;48.384;-4.386;2022-08-19T09:51:53;20.37;82.37
73547;SHT30;61807;48.384;-4.386;2022-08-19T09:54:22;20.36;82.38
73547;SHT30;61807;48.384;-4.386;2022-08-19T09:56:48;20.32;82.19
73547;SHT30;61807;48.384;-4.386;2022-08-19T09:59:14;20.33;82.20
73547;SHT30;61807;48.384;-4.386;2022-08-19T10:01:39;20.39;82.04
73547;SHT30;61807;48.384;-4.386;2022-08-19T10:04:05;20.45;82.04
73547;SHT30;61807;48.384;-4.386;2022-08-19T10:06:34;20.56;81.82
73547;SHT30;61807;48.384;-4.386;2022-08-19T10:09:00;20.77;81.84
73547;SHT30;61807;48.384;-4.386;2022-08-19T10:11:26;20.93;81.12
73547;SHT30;61807;48.384;-4.386;2022-08-19T10:13:51;20.98;80.92
73547;SHT30;61807;48.384;-4.386;2022-08-19T10:16:21;20.95;80.82
73547;SHT30;61807;48.384;-4.386;2022-08-19T10:18:48;20.93;80.56
73547;SHT30;61807;48.384;-4.386;2022-08-19T10:21:17;20.97;80.62
73547;SHT30;61807;48.384;-4.386;2022-08-19T10:23:46;21.05;80.72
73547;SHT30;61807;48.384;-4.386;2022-08-19T10:26:17;21.14;80.88
73547;SHT30;61807;48.384;-4.386;2022-08-19T10:28:42;21.20;80.17
73547;SHT30;61807;48.384;-4.386;2022-08-19T10:31:14;21.24;80.45
73547;SHT30;61807;48.384;-4.386;2022-08-19T10:33:40;21.30;80.35
73547;SHT30;61807;48.384;-4.386;2022-08-19T10:36:12;21.34;80.25
73547;SHT30;61807;48.384;-4.386;2022-08-19T10:38:40;21.42;80.27
73547;SHT30;61807;48.384;-4.386;2022-08-19T10:41:11;21.51;79.99
73547;SHT30;61807;48.384;-4.386;2022-08-19T10:43:37;21.56;80.04
73547;SHT30;61807;48.384;-4.386;2022-08-19T10:46:04;21.61;79.46
73547;SHT30;61807;48.384;-4.386;2022-08-19T10:48:31;21.63;78.93
73547;SHT30;61807;48.384;-4.386;2022-08-19T10:50:57;21.63;78.80
73547;SHT30;61807;48.384;-4.386;2022-08-19T10:53:42;21.61;78.93
73547;SHT30;61807;48.384;-4.386;2022-08-19T10:56:07;21.63;79.09
73547;SHT30;61807;48.384;-4.386;2022-08-19T10:58:56;21.61;78.41
73547;SHT30;61807;48.384;-4.386;2022-08-19T11:01:23;21.56;78.05
73547;SHT30;61807;48.384;-4.386;2022-08-19T11:03:48;21.65;78.31
73547;SHT30;61807;48.384;-4.386;2022-08-19T11:06:15;21.66;76.45
73547;SHT30;61807;48.384;-4.386;2022-08-19T11:08:40;21.65;76.71
73547;SHT30;61807;48.384;-4.386;2022-08-19T11:11:07;21.72;76.49
73547;SHT30;61807;48.384;-4.386;2022-08-19T11:13:36;21.80;76.55
73547;SHT30;61807;48.384;-4.386;2022-08-19T11:16:03;21.83;76.90
73547;SHT30;61807;48.384;-4.386;2022-08-19T11:18:29;21.86;77.02
73547;SHT30;61807;48.384;-4.386;2022-08-19T11:20:55;21.82;75.95
73547;SHT30;61807;48.384;-4.386;2022-08-19T11:23:30;21.83;75.33
73547;SHT30;61807;48.384;-4.386;2022-08-19T11:25:55;21.83;76.04
73547;SHT30;61807;48.384;-4.386;2022-08-19T11:28:22;21.89;76.01
73547;SHT30;61807;48.384;-4.386;2022-08-19T11:30:47;21.97;75.39
73547;SHT30;61807;48.384;-4.386;2022-08-19T11:33:12;22.09;74.94
73547;SHT30;61807;48.384;-4.386;2022-08-19T11:35:39;22.18;73.55
73547;SHT30;61807;48.384;-4.386;2022-08-19T11:38:05;22.22;74.30
73547;SHT30;61807;48.384;-4.386;2022-08-19T11:40:30;22.30;73.87
73547;SHT30;61807;48.384;-4.386;2022-08-19T11:42:56;22.41;73.65
73547;SHT30;61807;48.384;-4.386;2022-08-19T11:45:26;22.61;72.46
73547;SHT30;61807;48.384;-4.386;2022-08-19T11:47:53;22.94;71.92
73547;SHT30;61807;48.384;-4.386;2022-08-19T11:50:19;23.23;72.31
73547;SHT30;61807;48.384;-4.386;2022-08-19T11:52:45;23.54;68.55
73547;SHT30;61807;48.384;-4.386;2022-08-19T11:55:12;23.79;68.76
73547;SHT30;61807;48.384;-4.386;2022-08-19T11:57:38;24.05;68.07
73547;SHT30;61807;48.384;-4.386;2022-08-19T12:00:06;24.37;67.86
73547;SHT30;61807;48.384;-4.386;2022-08-19T12:02:33;24.74;65.94
73547;SHT30;61807;48.384;-4.386;2022-08-19T12:04:59;25.20;64.80
73547;SHT30;61807;48.384;-4.386;2022-08-19T12:07:27;25.65;64.88
73547;SHT30;61807;48.384;-4.386;2022-08-19T12:09:52;25.66;64.87
73547;SHT30;61807;48.384;-4.386;2022-08-19T12:12:18;25.89;64.42
73547;SHT30;61807;48.384;-4.386;2022-08-19T12:14:43;25.89;64.77
73547;SHT30;61807;48.384;-4.386;2022-08-19T12:17:09;26.19;63.19
73547;SHT30;61807;48.384;-4.386;2022-08-19T12:19:37;26.43;61.74
73547;SHT30;61807;48.384;-4.386;2022-08-19T12:22:02;26.36;61.59
73547;SHT30;61807;48.384;-4.386;2022-08-19T12:24:31;26.39;60.00
73547;SHT30;61807;48.384;-4.386;2022-08-19T12:26:57;26.82;58.09
73547;SHT30;61807;48.384;-4.386;2022-08-19T12:29:23;27.13;57.04
73547;SHT30;61807;48.384;-4.386;2022-08-19T12:31:53;27.53;55.86
73547;SHT30;61807;48.384;-4.386;2022-08-19T12:34:19;27.88;54.21
73547;SHT30;61807;48.384;-4.386;2022-08-19T12:36:45;28.26;54.55
73547;SHT30;61807;48.384;-4.386;2022-08-19T12:39:10;28.51;54.73
73547;SHT30;61807;48.384;-4.386;2022-08-19T12:41:36;28.79;51.76
73547;SHT30;61807;48.384;-4.386;2022-08-19T12:44:03;29.00;52.10
73547;SHT30;61807;48.384;-4.386;2022-08-19T12:46:28;29.18;51.02
73547;SHT30;61807;48.384;-4.386;2022-08-19T12:48:53;29.41;51.16
73547;SHT30;61807;48.384;-4.386;2022-08-19T12:51:19;29.62;50.08
73547;SHT30;61807;48.384;-4.386;2022-08-19T12:53:45;29.78;50.35
73547;SHT30;61807;48.384;-4.386;2022-08-19T12:56:12;29.52;49.96
73547;SHT30;61807;48.384;-4.386;2022-08-19T12:58:39;28.94;49.77
73547;SHT30;61807;48.384;-4.386;2022-08-19T13:01:09;28.94;50.07
73547;SHT30;61807;48.384;-4.386;2022-08-19T13:03:35;29.35;50.48
73547;SHT30;61807;48.384;-4.386;2022-08-19T13:06:02;29.75;48.92
73547;SHT30;61807;48.384;-4.386;2022-08-19T13:08:27;30.08;47.65
73547;SHT30;61807;48.384;-4.386;2022-08-19T13:10:53;30.29;46.86
73547;SHT30;61807;48.384;-4.386;2022-08-19T13:13:18;30.54;47.31
73547;SHT30;61807;48.384;-4.386;2022-08-19T13:15:44;30.79;47.34
73547;SHT30;61807;48.384;-4.386;2022-08-19T13:18:11;31.09;46.14
73547;SHT30;61807;48.384;-4.386;2022-08-19T13:20:38;31.28;44.53
73547;SHT30;61807;48.384;-4.386;2022-08-19T13:23:06;31.39;44.84
73547;SHT30;61807;48.384;-4.386;2022-08-19T13:25:31;31.45;44.56
73547;SHT30;61807;48.384;-4.386;2022-08-19T13:27:57;31.53;45.15
73547;SHT30;61807;48.384;-4.386;2022-08-19T13:30:23;31.62;43.11
73547;SHT30;61807;48.384;-4.386;2022-08-19T13:33:08;31.72;43.86
73547;SHT30;61807;48.384;-4.386;2022-08-19T13:38:06;31.90;43.63
73547;SHT30;61807;48.384;-4.386;2022-08-19T13:40:32;31.96;43.18
73547;SHT30;61807;48.384;-4.386;2022-08-19T13:43:01;31.97;43.46
73547;SHT30;61807;48.384;-4.386;2022-08-19T13:45:29;31.98;43.09
73547;SHT30;61807;48.384;-4.386;2022-08-19T13:47:56;32.04;42.40
73547;SHT30;61807;48.384;-4.386;2022-08-19T13:50:25;32.01;42.33
73547;SHT30;61807;48.384;-4.386;2022-08-19T13:52:53;32.10;43.13
73547;SHT30;61807;48.384;-4.386;2022-08-19T13:55:18;32.17;42.49
73547;SHT30;61807;48.384;-4.386;2022-08-19T13:57:45;31.87;42.95
73547;SHT30;61807;48.384;-4.386;2022-08-19T14:00:14;31.91;43.28
73547;SHT30;61807;48.384;-4.386;2022-08-19T14:02:40;32.01;43.61
73547;SHT30;61807;48.384;-4.386;2022-08-19T14:05:09;32.11;42.46
73547;SHT30;61807;48.384;-4.386;2022-08-19T14:07:35;32.17;42.37
73547;SHT30;61807;48.384;-4.386;2022-08-19T14:10:01;32.25;43.29
73547;SHT30;61807;48.384;-4.386;2022-08-19T14:12:26;32.28;42.85
73547;SHT30;61807;48.384;-4.386;2022-08-19T14:14:52;32.27;42.81
73547;SHT30;61807;48.384;-4.386;2022-08-19T14:17:17;32.27;43.95
73547;SHT30;61807;48.384;-4.386;2022-08-19T14:19:43;32.21;43.57
73547;SHT30;61807;48.384;-4.386;2022-08-19T14:22:09;32.20;43.52
73547;SHT30;61807;48.384;-4.386;2022-08-19T14:24:37;32.15;43.49
73547;SHT30;61807;48.384;-4.386;2022-08-19T14:27:03;32.13;42.64
73547;SHT30;61807;48.384;-4.386;2022-08-19T14:29:29;32.05;43.26
73547;SHT30;61807;48.384;-4.386;2022-08-19T14:31:55;31.97;43.33
73547;SHT30;61807;48.384;-4.386;2022-08-19T14:34:24;31.80;43.16
73547;SHT30;61807;48.384;-4.386;2022-08-19T14:36:50;31.60;42.87
73547;SHT30;61807;48.384;-4.386;2022-08-19T14:39:15;31.36;43.92
73547;SHT30;61807;48.384;-4.386;2022-08-19T14:41:41;31.14;43.44
73547;SHT30;61807;48.384;-4.386;2022-08-19T14:44:10;30.98;44.39
73547;SHT30;61807;48.384;-4.386;2022-08-19T14:46:38;30.88;43.65
73547;SHT30;61807;48.384;-4.386;2022-08-19T14:49:04;30.72;44.01
73547;SHT30;61807;48.384;-4.386;2022-08-19T14:51:30;30.58;43.20
73547;SHT30;61807;48.384;-4.386;2022-08-19T14:53:56;30.37;43.28
73547;SHT30;61807;48.384;-4.386;2022-08-19T14:56:25;30.13;43.26
73547;SHT30;61807;48.384;-4.386;2022-08-19T14:58:52;29.92;43.75
73547;SHT30;61807;48.384;-4.386;2022-08-19T15:01:19;29.72;43.12
73547;SHT30;61807;48.384;-4.386;2022-08-19T15:03:46;29.51;44.13
73547;SHT30;61807;48.384;-4.386;2022-08-19T15:06:12;29.37;44.19
73547;SHT30;61807;48.384;-4.386;2022-08-19T15:08:40;29.20;43.15
73547;SHT30;61807;48.384;-4.386;2022-08-19T15:11:11;29.03;42.76
73547;SHT30;61807;48.384;-4.386;2022-08-19T15:13:37;28.76;43.33
73547;SHT30;61807;48.384;-4.386;2022-08-19T15:16:04;28.52;43.43
73547;SHT30;61807;48.384;-4.386;2022-08-19T15:18:30;28.31;43.39
73547;SHT30;61807;48.384;-4.386;2022-08-19T15:20:56;28.14;44.48
73547;SHT30;61807;48.384;-4.386;2022-08-19T15:23:21;28.02;44.88
73547;SHT30;61807;48.384;-4.386;2022-08-19T15:25:48;27.78;45.00
73547;SHT30;61807;48.384;-4.386;2022-08-19T15:28:13;27.50;44.76
73547;SHT30;61807;48.384;-4.386;2022-08-19T15:30:41;27.26;45.38
73547;SHT30;61807;48.384;-4.386;2022-08-19T15:33:10;26.98;46.24